Decoded Metar for KTTA (SANFORD in NC, USA) (IATA:TTA) | Meteo·Mobile Aviation Weather
aviador You're here:

KTTA Decoded Metar

SANFORD in NC, USA
Report Time2019-03-19 18:30:00
UTC Time2019-03-19 18:44:53
Flight Rules vfr VFR
Wind330° at 09 Gusting to 14 kt
W.Decomp.*RWY 03: 5.5 kt HW 7.1 kt LCW
W.Rank330° ranks 19
Current wind is above 330° avg. (6.1)
Visibility9999 m
Phenomena:N/A
Clouds:N/A
Expected CloudBase > 6,000 ft AGL from Temp-Dew spread
CeilingNone
Temp11°C (ISA -4)
Dew Point-4°C (35% RH)
AAT5.3°C
QNH1029 hPa
Density Alt-646 ft
Elevation246 ft
Report Wrong Elevation
Raw Report
METAR KTTA 191830Z AUTO 33009G14KT 10SM CLR 11/M04 A3038 RMK AO2 T01121042=

Extra information for KTTA:More info

Metar Taf Metar & Taf Last 4 Metars F.Rules Stats Wind Profile Meteogram Temp Stats Airport Information Weather charts Add Link Nearby VenuesMetar ALERT Operation Metar Decoded Social comments

AIRNAV info for KTTA